sensor_id;sensor_type;location;lat;lon;timestamp;temperature;humidity
11242;DHT22;5678;52.370;9.006;2023-02-01T00:00:09;3.80;99.90
11242;DHT22;5678;52.370;9.006;2023-02-01T00:02:38;3.80;99.90
11242;DHT22;5678;52.370;9.006;2023-02-01T00:05:09;3.80;99.90
11242;DHT22;5678;52.370;9.006;2023-02-01T00:07:37;3.80;99.90
11242;DHT22;5678;52.370;9.006;2023-02-01T00:10:07;5.20;99.90
11242;DHT22;5678;52.370;9.006;2023-02-01T00:12:35;3.80;99.90
11242;DHT22;5678;52.370;9.006;2023-02-01T00:15:03;3.80;99.90
11242;DHT22;5678;52.370;9.006;2023-02-01T00:17:31;3.70;99.90
11242;DHT22;5678;52.370;9.006;2023-02-01T00:19:59;3.70;99.90
11242;DHT22;5678;52.370;9.006;2023-02-01T00:22:29;3.70;99.90
11242;DHT22;5678;52.370;9.006;2023-02-01T00:24:56;4.30;99.90
11242;DHT22;5678;52.370;9.006;2023-02-01T00:27:24;3.70;99.90
11242;DHT22;5678;52.370;9.006;2023-02-01T00:29:54;4.20;99.90
11242;DHT22;5678;52.370;9.006;2023-02-01T00:32:22;3.60;99.90
11242;DHT22;5678;52.370;9.006;2023-02-01T00:34:50;3.60;99.90
11242;DHT22;5678;52.370;9.006;2023-02-01T00:37:18;3.80;99.90
11242;DHT22;5678;52.370;9.006;2023-02-01T00:39:47;3.70;99.90
11242;DHT22;5678;52.370;9.006;2023-02-01T00:42:16;3.70;99.90
11242;DHT22;5678;52.370;9.006;2023-02-01T00:44:44;4.60;99.90
11242;DHT22;5678;52.370;9.006;2023-02-01T00:47:12;3.60;99.90
11242;DHT22;5678;52.370;9.006;2023-02-01T00:49:39;5.10;99.90
11242;DHT22;5678;52.370;9.006;2023-02-01T00:52:07;3.60;99.90
11242;DHT22;5678;52.370;9.006;2023-02-01T00:54:35;3.60;99.90
11242;DHT22;5678;52.370;9.006;2023-02-01T00:57:05;3.80;99.90
11242;DHT22;5678;52.370;9.006;2023-02-01T00:59:33;3.60;99.90
11242;DHT22;5678;52.370;9.006;2023-02-01T01:02:01;3.60;99.90
11242;DHT22;5678;52.370;9.006;2023-02-01T01:04:29;3.60;99.90
11242;DHT22;5678;52.370;9.006;2023-02-01T01:06:57;3.60;99.90
11242;DHT22;5678;52.370;9.006;2023-02-01T01:09:25;3.70;99.90
11242;DHT22;5678;52.370;9.006;2023-02-01T01:11:53;3.70;99.90
11242;DHT22;5678;52.370;9.006;2023-02-01T01:14:22;3.90;99.90
11242;DHT22;5678;52.370;9.006;2023-02-01T01:16:50;3.80;99.90
11242;DHT22;5678;52.370;9.006;2023-02-01T01:19:18;4.00;99.90
11242;DHT22;5678;52.370;9.006;2023-02-01T01:21:46;3.80;99.90
11242;DHT22;5678;52.370;9.006;2023-02-01T01:24:14;5.00;99.90
11242;DHT22;5678;52.370;9.006;2023-02-01T01:26:42;3.80;99.90
11242;DHT22;5678;52.370;9.006;2023-02-01T01:29:10;3.80;99.90
11242;DHT22;5678;52.370;9.006;2023-02-01T01:31:39;3.80;99.90
11242;DHT22;5678;52.370;9.006;2023-02-01T01:34:08;3.80;99.90
11242;DHT22;5678;52.370;9.006;2023-02-01T01:36:36;3.90;99.90
11242;DHT22;5678;52.370;9.006;2023-02-01T01:39:04;3.90;99.90
11242;DHT22;5678;52.370;9.006;2023-02-01T01:41:32;4.50;99.90
11242;DHT22;5678;52.370;9.006;2023-02-01T01:44:01;3.90;99.90
11242;DHT22;5678;52.370;9.006;2023-02-01T01:46:31;4.00;99.90
11242;DHT22;5678;52.370;9.006;2023-02-01T01:49:05;4.20;99.90
11242;DHT22;5678;52.370;9.006;2023-02-01T01:51:37;4.00;99.90
11242;DHT22;5678;52.370;9.006;2023-02-01T01:54:12;5.20;99.90
11242;DHT22;5678;52.370;9.006;2023-02-01T01:56:46;4.00;99.90
11242;DHT22;5678;52.370;9.006;2023-02-01T01:59:17;4.00;99.90
11242;DHT22;5678;52.370;9.006;2023-02-01T02:01:45;4.90;99.90
11242;DHT22;5678;52.370;9.006;2023-02-01T02:04:15;5.30;99.90
11242;DHT22;5678;52.370;9.006;2023-02-01T02:06:47;4.10;99.90
11242;DHT22;5678;52.370;9.006;2023-02-01T02:09:17;5.30;99.90
11242;DHT22;5678;52.370;9.006;2023-02-01T02:11:45;4.20;99.90
11242;DHT22;5678;52.370;9.006;2023-02-01T02:14:15;4.90;99.90
11242;DHT22;5678;52.370;9.006;2023-02-01T02:16:56;5.80;99.90
11242;DHT22;5678;52.370;9.006;2023-02-01T02:22:57;4.20;99.90
11242;DHT22;5678;52.370;9.006;2023-02-01T02:25:50;4.30;99.90
11242;DHT22;5678;52.370;9.006;2023-02-01T02:28:52;4.30;99.90
11242;DHT22;5678;52.370;9.006;2023-02-01T02:31:36;4.30;99.90
11242;DHT22;5678;52.370;9.006;2023-02-01T02:34:16;4.30;99.90
11242;DHT22;5678;52.370;9.006;2023-02-01T02:36:54;5.40;99.90
11242;DHT22;5678;52.370;9.006;2023-02-01T02:39:34;5.40;99.90
11242;DHT22;5678;52.370;9.006;2023-02-01T02:42:11;5.10;99.90
11242;DHT22;5678;52.370;9.006;2023-02-01T02:45:02;4.10;99.90
11242;DHT22;5678;52.370;9.006;2023-02-01T02:47:54;5.70;99.90
11242;DHT22;5678;52.370;9.006;2023-02-01T02:50:29;4.40;99.90
11242;DHT22;5678;52.370;9.006;2023-02-01T02:53:18;4.10;99.90
11242;DHT22;5678;52.370;9.006;2023-02-01T02:56:07;5.10;99.90
11242;DHT22;5678;52.370;9.006;2023-02-01T02:58:54;4.10;99.90
11242;DHT22;5678;52.370;9.006;2023-02-01T03:01:41;4.10;99.90
11242;DHT22;5678;52.370;9.006;2023-02-01T03:04:27;4.10;99.90
11242;DHT22;5678;52.370;9.006;2023-02-01T03:06:56;4.10;99.90
11242;DHT22;5678;52.370;9.006;2023-02-01T03:09:28;4.20;99.90
11242;DHT22;5678;52.370;9.006;2023-02-01T03:12:01;4.20;99.90
11242;DHT22;5678;52.370;9.006;2023-02-01T03:14:54;5.70;99.90
11242;DHT22;5678;52.370;9.006;2023-02-01T03:17:27;4.30;99.90
11242;DHT22;5678;52.370;9.006;2023-02-01T03:20:00;5.50;99.90
11242;DHT22;5678;52.370;9.006;2023-02-01T03:22:31;5.90;99.90
11242;DHT22;5678;52.370;9.006;2023-02-01T03:25:04;4.90;99.90
11242;DHT22;5678;52.370;9.006;2023-02-01T03:27:36;4.40;99.90
11242;DHT22;5678;52.370;9.006;2023-02-01T03:30:10;5.70;99.90
11242;DHT22;5678;52.370;9.006;2023-02-01T03:32:45;4.50;99.90
11242;DHT22;5678;52.370;9.006;2023-02-01T03:35:31;5.80;99.90
11242;DHT22;5678;52.370;9.006;2023-02-01T03:38:08;4.60;99.90
11242;DHT22;5678;52.370;9.006;2023-02-01T03:40:42;4.90;99.90
11242;DHT22;5678;52.370;9.006;2023-02-01T03:43:14;4.60;99.90
11242;DHT22;5678;52.370;9.006;2023-02-01T03:45:49;4.80;99.90
11242;DHT22;5678;52.370;9.006;2023-02-01T03:48:22;4.60;99.90
11242;DHT22;5678;52.370;9.006;2023-02-01T03:50:53;5.50;99.90
11242;DHT22;5678;52.370;9.006;2023-02-01T03:53:25;5.40;99.90
11242;DHT22;5678;52.370;9.006;2023-02-01T03:55:54;4.50;99.90
11242;DHT22;5678;52.370;9.006;2023-02-01T03:58:23;5.10;99.90
11242;DHT22;5678;52.370;9.006;2023-02-01T04:00:53;4.50;99.90
11242;DHT22;5678;52.370;9.006;2023-02-01T04:03:21;4.60;99.90
11242;DHT22;5678;52.370;9.006;2023-02-01T04:05:49;4.50;99.90
11242;DHT22;5678;52.370;9.006;2023-02-01T04:08:18;5.20;99.90
11242;DHT22;5678;52.370;9.006;2023-02-01T04:10:47;5.60;99.90
11242;DHT22;5678;52.370;9.006;2023-02-01T04:13:15;6.20;99.90
11242;DHT22;5678;52.370;9.006;2023-02-01T04:15:43;6.50;99.90
11242;DHT22;5678;52.370;9.006;2023-02-01T04:18:12;6.20;99.90
11242;DHT22;5678;52.370;9.006;2023-02-01T04:20:40;4.70;99.90
11242;DHT22;5678;52.370;9.006;2023-02-01T04:23:07;4.80;99.90
11242;DHT22;5678;52.370;9.006;2023-02-01T04:25:35;6.20;99.90
11242;DHT22;5678;52.370;9.006;2023-02-01T04:28:05;6.20;99.90
11242;DHT22;5678;52.370;9.006;2023-02-01T04:30:33;4.80;99.90
11242;DHT22;5678;52.370;9.006;2023-02-01T04:33:01;5.80;99.90
11242;DHT22;5678;52.370;9.006;2023-02-01T04:35:32;5.20;99.90
11242;DHT22;5678;52.370;9.006;2023-02-01T04:38:00;6.10;99.90
11242;DHT22;5678;52.370;9.006;2023-02-01T04:40:28;5.90;99.90
11242;DHT22;5678;52.370;9.006;2023-02-01T04:42:56;5.30;99.90
11242;DHT22;5678;52.370;9.006;2023-02-01T04:45:25;4.80;99.90
11242;DHT22;5678;52.370;9.006;2023-02-01T04:47:53;6.30;99.90
11242;DHT22;5678;52.370;9.006;2023-02-01T04:50:21;5.90;99.90
11242;DHT22;5678;52.370;9.006;2023-02-01T04:52:50;4.80;99.90
11242;DHT22;5678;52.370;9.006;2023-02-01T04:55:18;4.80;99.90
11242;DHT22;5678;52.370;9.006;2023-02-01T04:57:46;4.70;99.90
11242;DHT22;5678;52.370;9.006;2023-02-01T05:00:15;4.70;99.90
11242;DHT22;5678;52.370;9.006;2023-02-01T05:02:44;4.70;99.90
11242;DHT22;5678;52.370;9.006;2023-02-01T05:05:12;4.70;99.90
11242;DHT22;5678;52.370;9.006;2023-02-01T05:07:40;4.70;99.90
11242;DHT22;5678;52.370;9.006;2023-02-01T05:10:09;6.00;99.90
11242;DHT22;5678;52.370;9.006;2023-02-01T05:12:37;4.70;99.90
11242;DHT22;5678;52.370;9.006;2023-02-01T05:15:22;6.70;99.90
11242;DHT22;5678;52.370;9.006;2023-02-01T05:17:52;4.70;99.90
11242;DHT22;5678;52.370;9.006;2023-02-01T05:20:20;4.70;99.90
11242;DHT22;5678;52.370;9.006;2023-02-01T05:22:48;4.70;99.90
11242;DHT22;5678;52.370;9.006;2023-02-01T05:25:16;5.30;99.90
11242;DHT22;5678;52.370;9.006;2023-02-01T05:27:45;5.10;99.90
11242;DHT22;5678;52.370;9.006;2023-02-01T05:30:14;5.30;99.90
11242;DHT22;5678;52.370;9.006;2023-02-01T05:32:42;4.70;99.90
11242;DHT22;5678;52.370;9.006;2023-02-01T05:35:11;4.70;99.90
11242;DHT22;5678;52.370;9.006;2023-02-01T05:37:39;5.90;99.90
11242;DHT22;5678;52.370;9.006;2023-02-01T05:40:08;5.80;99.90
11242;DHT22;5678;52.370;9.006;2023-02-01T05:42:36;4.60;99.90
11242;DHT22;5678;52.370;9.006;2023-02-01T05:45:05;4.60;99.90
11242;DHT22;5678;52.370;9.006;2023-02-01T05:47:34;4.60;99.90
11242;DHT22;5678;52.370;9.006;2023-02-01T05:50:02;6.00;99.90
11242;DHT22;5678;52.370;9.006;2023-02-01T05:52:31;4.60;99.90
11242;DHT22;5678;52.370;9.006;2023-02-01T05:54:59;4.60;99.90
11242;DHT22;5678;52.370;9.006;2023-02-01T05:57:27;4.90;99.90
11242;DHT22;5678;52.370;9.006;2023-02-01T05:59:56;4.50;99.90
11242;DHT22;5678;52.370;9.006;2023-02-01T06:02:26;4.50;99.90
11242;DHT22;5678;52.370;9.006;2023-02-01T06:04:54;4.50;99.90
11242;DHT22;5678;52.370;9.006;2023-02-01T06:07:22;4.50;99.90
11242;DHT22;5678;52.370;9.006;2023-02-01T06:09:51;5.10;99.90
11242;DHT22;5678;52.370;9.006;2023-02-01T06:12:19;4.40;99.90
11242;DHT22;5678;52.370;9.006;2023-02-01T06:14:47;5.00;99.90
11242;DHT22;5678;52.370;9.006;2023-02-01T06:17:15;4.40;99.90
11242;DHT22;5678;52.370;9.006;2023-02-01T06:19:43;4.30;99.90
11242;DHT22;5678;52.370;9.006;2023-02-01T06:22:11;5.30;99.90
11242;DHT22;5678;52.370;9.006;2023-02-01T06:24:39;5.90;99.90
11242;DHT22;5678;52.370;9.006;2023-02-01T06:27:09;4.30;99.90
11242;DHT22;5678;52.370;9.006;2023-02-01T06:29:37;4.30;99.90
11242;DHT22;5678;52.370;9.006;2023-02-01T06:32:05;4.30;99.90
11242;DHT22;5678;52.370;9.006;2023-02-01T06:34:34;4.30;99.90
11242;DHT22;5678;52.370;9.006;2023-02-01T06:37:03;4.30;99.90
11242;DHT22;5678;52.370;9.006;2023-02-01T06:39:31;4.30;99.90
11242;DHT22;5678;52.370;9.006;2023-02-01T06:41:59;5.40;99.90
11242;DHT22;5678;52.370;9.006;2023-02-01T06:44:29;4.30;99.90
11242;DHT22;5678;52.370;9.006;2023-02-01T06:46:57;5.90;99.90
11242;DHT22;5678;52.370;9.006;2023-02-01T06:49:25;4.30;99.90
11242;DHT22;5678;52.370;9.006;2023-02-01T06:51:53;5.80;99.90
11242;DHT22;5678;52.370;9.006;2023-02-01T06:54:20;5.10;99.90
11242;DHT22;5678;52.370;9.006;2023-02-01T06:56:48;4.30;99.90
11242;DHT22;5678;52.370;9.006;2023-02-01T06:59:16;5.90;99.90
11242;DHT22;5678;52.370;9.006;2023-02-01T07:01:46;5.10;99.90
11242;DHT22;5678;52.370;9.006;2023-02-01T07:04:14;4.30;99.90
11242;DHT22;5678;52.370;9.006;2023-02-01T07:06:42;5.10;99.90
11242;DHT22;5678;52.370;9.006;2023-02-01T07:09:10;6.00;99.90
11242;DHT22;5678;52.370;9.006;2023-02-01T07:11:38;4.40;99.90
11242;DHT22;5678;52.370;9.006;2023-02-01T07:14:09;4.40;99.90
11242;DHT22;5678;52.370;9.006;2023-02-01T07:16:38;4.50;99.90
11242;DHT22;5678;52.370;9.006;2023-02-01T07:19:07;5.90;99.90
11242;DHT22;5678;52.370;9.006;2023-02-01T07:21:35;4.70;99.90
11242;DHT22;5678;52.370;9.006;2023-02-01T07:24:03;5.90;99.90
11242;DHT22;5678;52.370;9.006;2023-02-01T07:26:31;4.50;99.90
11242;DHT22;5678;52.370;9.006;2023-02-01T07:28:59;4.50;99.90
11242;DHT22;5678;52.370;9.006;2023-02-01T07:31:27;4.50;99.90
11242;DHT22;5678;52.370;9.006;2023-02-01T07:33:55;5.40;99.90
11242;DHT22;5678;52.370;9.006;2023-02-01T07:36:26;5.70;99.90
11242;DHT22;5678;52.370;9.006;2023-02-01T07:38:54;4.60;99.90
11242;DHT22;5678;52.370;9.006;2023-02-01T07:41:22;5.30;99.90
11242;DHT22;5678;52.370;9.006;2023-02-01T07:43:52;4.60;99.90
11242;DHT22;5678;52.370;9.006;2023-02-01T07:46:20;5.50;99.90
11242;DHT22;5678;52.370;9.006;2023-02-01T07:48:48;6.10;99.90
11242;DHT22;5678;52.370;9.006;2023-02-01T07:51:17;4.70;99.90
11242;DHT22;5678;52.370;9.006;2023-02-01T07:53:46;4.80;99.90
11242;DHT22;5678;52.370;9.006;2023-02-01T07:56:16;4.80;99.90
11242;DHT22;5678;52.370;9.006;2023-02-01T07:58:47;4.90;99.90
11242;DHT22;5678;52.370;9.006;2023-02-01T08:01:16;6.30;99.90
11242;DHT22;5678;52.370;9.006;2023-02-01T08:03:52;5.50;99.90
11242;DHT22;5678;52.370;9.006;2023-02-01T08:06:21;6.20;99.90
11242;DHT22;5678;52.370;9.006;2023-02-01T08:08:52;6.20;99.90
11242;DHT22;5678;52.370;9.006;2023-02-01T08:11:22;6.00;99.90
11242;DHT22;5678;52.370;9.006;2023-02-01T08:13:50;5.70;99.90
11242;DHT22;5678;52.370;9.006;2023-02-01T08:16:19;5.20;99.90
11242;DHT22;5678;52.370;9.006;2023-02-01T08:18:47;5.30;99.90
11242;DHT22;5678;52.370;9.006;2023-02-01T08:21:17;5.90;99.90
11242;DHT22;5678;52.370;9.006;2023-02-01T08:23:45;6.80;99.90
11242;DHT22;5678;52.370;9.006;2023-02-01T08:26:16;6.50;99.90
11242;DHT22;5678;52.370;9.006;2023-02-01T08:28:46;5.60;99.90
11242;DHT22;5678;52.370;9.006;2023-02-01T08:31:16;5.50;99.90
11242;DHT22;5678;52.370;9.006;2023-02-01T08:33:49;6.20;99.90
11242;DHT22;5678;52.370;9.006;2023-02-01T08:36:17;6.00;99.90
11242;DHT22;5678;52.370;9.006;2023-02-01T08:38:45;5.90;99.90
11242;DHT22;5678;52.370;9.006;2023-02-01T08:41:16;5.90;99.90
11242;DHT22;5678;52.370;9.006;2023-02-01T08:43:45;5.90;99.90
11242;DHT22;5678;52.370;9.006;2023-02-01T08:46:13;5.90;99.90
11242;DHT22;5678;52.370;9.006;2023-02-01T08:48:41;5.90;99.90
11242;DHT22;5678;52.370;9.006;2023-02-01T08:51:11;5.90;99.90
11242;DHT22;5678;52.370;9.006;2023-02-01T08:53:40;6.20;99.90
11242;DHT22;5678;52.370;9.006;2023-02-01T08:56:09;6.80;99.90
11242;DHT22;5678;52.370;9.006;2023-02-01T08:58:39;6.00;99.90
11242;DHT22;5678;52.370;9.006;2023-02-01T09:01:08;6.90;99.90
11242;DHT22;5678;52.370;9.006;2023-02-01T09:03:37;6.10;99.90
11242;DHT22;5678;52.370;9.006;2023-02-01T09:06:07;6.10;99.90
11242;DHT22;5678;52.370;9.006;2023-02-01T09:08:36;6.10;99.90
11242;DHT22;5678;52.370;9.006;2023-02-01T09:11:06;6.20;99.90
11242;DHT22;5678;52.370;9.006;2023-02-01T09:13:34;6.10;99.90
11242;DHT22;5678;52.370;9.006;2023-02-01T09:16:04;6.20;99.90
11242;DHT22;5678;52.370;9.006;2023-02-01T09:18:33;6.20;99.90
11242;DHT22;5678;52.370;9.006;2023-02-01T09:21:04;6.40;99.90
11242;DHT22;5678;52.370;9.006;2023-02-01T09:23:33;6.30;99.90
11242;DHT22;5678;52.370;9.006;2023-02-01T09:26:04;6.30;99.90
11242;DHT22;5678;52.370;9.006;2023-02-01T09:28:35;6.90;99.90
11242;DHT22;5678;52.370;9.006;2023-02-01T09:31:05;6.40;99.90
11242;DHT22;5678;52.370;9.006;2023-02-01T09:33:33;6.40;99.90
11242;DHT22;5678;52.370;9.006;2023-02-01T09:36:04;6.40;99.90
11242;DHT22;5678;52.370;9.006;2023-02-01T09:38:32;6.50;99.90
11242;DHT22;5678;52.370;9.006;2023-02-01T09:41:10;6.80;99.90
11242;DHT22;5678;52.370;9.006;2023-02-01T09:43:51;6.50;99.90
11242;DHT22;5678;52.370;9.006;2023-02-01T09:46:27;6.50;99.90
11242;DHT22;5678;52.370;9.006;2023-02-01T09:48:58;6.50;99.90
11242;DHT22;5678;52.370;9.006;2023-02-01T09:51:32;6.60;99.90
11242;DHT22;5678;52.370;9.006;2023-02-01T09:54:05;6.60;99.90
11242;DHT22;5678;52.370;9.006;2023-02-01T09:56:41;6.60;99.90
11242;DHT22;5678;52.370;9.006;2023-02-01T09:59:26;8.00;99.90
11242;DHT22;5678;52.370;9.006;2023-02-01T10:01:59;6.80;99.90
11242;DHT22;5678;52.370;9.006;2023-02-01T10:04:27;6.80;99.90
11242;DHT22;5678;52.370;9.006;2023-02-01T10:07:06;6.90;99.90
11242;DHT22;5678;52.370;9.006;2023-02-01T10:09:44;7.00;99.90
11242;DHT22;5678;52.370;9.006;2023-02-01T10:12:32;7.00;99.90
11242;DHT22;5678;52.370;9.006;2023-02-01T10:15:14;7.00;99.90
11242;DHT22;5678;52.370;9.006;2023-02-01T10:17:57;7.00;99.90
11242;DHT22;5678;52.370;9.006;2023-02-01T10:20:31;7.50;99.90
11242;DHT22;5678;52.370;9.006;2023-02-01T10:23:15;7.00;99.90
11242;DHT22;5678;52.370;9.006;2023-02-01T10:26:05;6.90;99.90
11242;DHT22;5678;52.370;9.006;2023-02-01T10:28:37;6.90;99.90
11242;DHT22;5678;52.370;9.006;2023-02-01T10:31:08;7.00;99.90
11242;DHT22;5678;52.370;9.006;2023-02-01T10:33:41;7.00;99.90
11242;DHT22;5678;52.370;9.006;2023-02-01T10:36:15;7.00;99.90
11242;DHT22;5678;52.370;9.006;2023-02-01T10:38:45;7.10;99.90
11242;DHT22;5678;52.370;9.006;2023-02-01T10:41:15;7.10;99.90
11242;DHT22;5678;52.370;9.006;2023-02-01T10:43:45;7.10;99.90
11242;DHT22;5678;52.370;9.006;2023-02-01T10:46:16;7.10;99.90
11242;DHT22;5678;52.370;9.006;2023-02-01T10:48:47;7.00;99.90
11242;DHT22;5678;52.370;9.006;2023-02-01T10:51:20;7.00;99.90
11242;DHT22;5678;52.370;9.006;2023-02-01T10:53:55;7.00;99.90
11242;DHT22;5678;52.370;9.006;2023-02-01T10:56:26;6.90;99.90
11242;DHT22;5678;52.370;9.006;2023-02-01T10:59:00;7.00;99.90
11242;DHT22;5678;52.370;9.006;2023-02-01T11:01:33;7.00;99.90
11242;DHT22;5678;52.370;9.006;2023-02-01T11:04:04;7.00;99.90
11242;DHT22;5678;52.370;9.006;2023-02-01T11:06:34;6.90;99.90
11242;DHT22;5678;52.370;9.006;2023-02-01T11:09:11;6.90;99.90
11242;DHT22;5678;52.370;9.006;2023-02-01T11:11:55;7.00;99.90
11242;DHT22;5678;52.370;9.006;2023-02-01T11:14:32;6.90;99.90
11242;DHT22;5678;52.370;9.006;2023-02-01T11:17:17;6.90;99.90
11242;DHT22;5678;52.370;9.006;2023-02-01T11:19:48;6.90;99.90
11242;DHT22;5678;52.370;9.006;2023-02-01T11:22:24;6.90;99.90
11242;DHT22;5678;52.370;9.006;2023-02-01T11:24:53;6.90;99.90
11242;DHT22;5678;52.370;9.006;2023-02-01T11:27:23;6.90;99.90
11242;DHT22;5678;52.370;9.006;2023-02-01T11:29:58;6.90;99.90
11242;DHT22;5678;52.370;9.006;2023-02-01T11:32:27;6.90;99.90
11242;DHT22;5678;52.370;9.006;2023-02-01T11:35:00;6.90;99.90
11242;DHT22;5678;52.370;9.006;2023-02-01T11:37:31;6.90;99.90
11242;DHT22;5678;52.370;9.006;2023-02-01T11:40:09;6.90;99.90
11242;DHT22;5678;52.370;9.006;2023-02-01T11:42:55;6.90;99.90
11242;DHT22;5678;52.370;9.006;2023-02-01T11:45:26;6.90;99.90
11242;DHT22;5678;52.370;9.006;2023-02-01T11:47:56;6.90;99.90
11242;DHT22;5678;52.370;9.006;2023-02-01T11:50:34;7.50;99.90
11242;DHT22;5678;52.370;9.006;2023-02-01T11:53:23;7.00;99.90
11242;DHT22;5678;52.370;9.006;2023-02-01T11:55:59;7.00;99.90
11242;DHT22;5678;52.370;9.006;2023-02-01T11:59:08;6.90;99.90
11242;DHT22;5678;52.370;9.006;2023-02-01T12:02:11;6.90;99.90
11242;DHT22;5678;52.370;9.006;2023-02-01T12:05:11;6.70;99.90
11242;DHT22;5678;52.370;9.006;2023-02-01T12:08:01;6.60;99.90
11242;DHT22;5678;52.370;9.006;2023-02-01T12:10:42;6.50;99.90
11242;DHT22;5678;52.370;9.006;2023-02-01T12:13:23;6.50;99.90
11242;DHT22;5678;52.370;9.006;2023-02-01T12:16:02;6.40;99.90
11242;DHT22;5678;52.370;9.006;2023-02-01T12:19:04;6.30;99.90
11242;DHT22;5678;52.370;9.006;2023-02-01T12:21:45;6.20;99.90
11242;DHT22;5678;52.370;9.006;2023-02-01T12:24:39;6.20;99.90
11242;DHT22;5678;52.370;9.006;2023-02-01T12:27:29;6.40;99.90
11242;DHT22;5678;52.370;9.006;2023-02-01T12:30:15;6.10;99.90
11242;DHT22;5678;52.370;9.006;2023-02-01T12:32:55;6.10;99.90
11242;DHT22;5678;52.370;9.006;2023-02-01T12:35:41;6.40;99.90
11242;DHT22;5678;52.370;9.006;2023-02-01T12:38:31;6.10;99.90
11242;DHT22;5678;52.370;9.006;2023-02-01T12:41:14;6.00;99.90
11242;DHT22;5678;52.370;9.006;2023-02-01T12:43:47;6.00;99.90
11242;DHT22;5678;52.370;9.006;2023-02-01T12:46:21;6.50;99.90
11242;DHT22;5678;52.370;9.006;2023-02-01T12:48:54;6.00;99.90
11242;DHT22;5678;52.370;9.006;2023-02-01T12:51:27;6.10;99.90
11242;DHT22;5678;52.370;9.006;2023-02-01T12:54:02;6.10;99.90
11242;DHT22;5678;52.370;9.006;2023-02-01T12:56:36;6.10;99.90
11242;DHT22;5678;52.370;9.006;2023-02-01T12:59:15;6.10;99.90
11242;DHT22;5678;52.370;9.006;2023-02-01T13:01:48;6.10;99.90
11242;DHT22;5678;52.370;9.006;2023-02-01T13:04:21;6.80;99.90
11242;DHT22;5678;52.370;9.006;2023-02-01T13:06:54;6.00;99.90
11242;DHT22;5678;52.370;9.006;2023-02-01T13:09:27;5.90;99.90
11242;DHT22;5678;52.370;9.006;2023-02-01T13:12:04;6.50;99.90
11242;DHT22;5678;52.370;9.006;2023-02-01T13:14:40;6.10;99.90
11242;DHT22;5678;52.370;9.006;2023-02-01T13:17:14;6.70;99.90
11242;DHT22;5678;52.370;9.006;2023-02-01T13:19:47;6.60;99.90
11242;DHT22;5678;52.370;9.006;2023-02-01T13:22:19;5.60;99.90
11242;DHT22;5678;52.370;9.006;2023-02-01T13:24:52;5.90;99.90
11242;DHT22;5678;52.370;9.006;2023-02-01T13:27:26;6.70;99.90
11242;DHT22;5678;52.370;9.006;2023-02-01T13:29:58;5.50;99.90
11242;DHT22;5678;52.370;9.006;2023-02-01T13:32:42;5.50;99.90
11242;DHT22;5678;52.370;9.006;2023-02-01T13:35:52;5.50;99.90
11242;DHT22;5678;52.370;9.006;2023-02-01T13:39:08;5.40;99.90
11242;DHT22;5678;52.370;9.006;2023-02-01T13:41:49;4.90;99.90
11242;DHT22;5678;52.370;9.006;2023-02-01T13:44:25;4.10;99.90
11242;DHT22;5678;52.370;9.006;2023-02-01T13:46:57;3.20;99.90
11242;DHT22;5678;52.370;9.006;2023-02-01T13:49:28;2.70;99.90
11242;DHT22;5678;52.370;9.006;2023-02-01T13:51:57;1.90;99.90
11242;DHT22;5678;52.370;9.006;2023-02-01T13:54:29;2.90;99.90
11242;DHT22;5678;52.370;9.006;2023-02-01T13:56:58;1.80;99.90
11242;DHT22;5678;52.370;9.006;2023-02-01T13:59:49;1.50;99.90
11242;DHT22;5678;52.370;9.006;2023-02-01T14:02:45;1.40;99.90
11242;DHT22;5678;52.370;9.006;2023-02-01T14:08:24;1.30;99.90
11242;DHT22;5678;52.370;9.006;2023-02-01T14:11:03;1.50;99.90
11242;DHT22;5678;52.370;9.006;2023-02-01T14:13:33;1.20;99.90
11242;DHT22;5678;52.370;9.006;2023-02-01T14:16:14;1.10;99.90
11242;DHT22;5678;52.370;9.006;2023-02-01T14:18:59;1.00;99.90
11242;DHT22;5678;52.370;9.006;2023-02-01T14:21:30;1.00;99.90
11242;DHT22;5678;52.370;9.006;2023-02-01T14:24:01;1.00;99.90
11242;DHT22;5678;52.370;9.006;2023-02-01T14:26:43;0.90;99.90
11242;DHT22;5678;52.370;9.006;2023-02-01T14:29:26;1.20;99.90
11242;DHT22;5678;52.370;9.006;2023-02-01T14:32:04;0.90;99.90
11242;DHT22;5678;52.370;9.006;2023-02-01T14:34:40;1.40;99.90
11242;DHT22;5678;52.370;9.006;2023-02-01T14:37:26;1.50;99.90
11242;DHT22;5678;52.370;9.006;2023-02-01T14:39:57;1.60;99.90
11242;DHT22;5678;52.370;9.006;2023-02-01T14:42:31;1.60;99.90
11242;DHT22;5678;52.370;9.006;2023-02-01T14:51:07;1.90;99.90
11242;DHT22;5678;52.370;9.006;2023-02-01T14:53:36;1.90;99.90
11242;DHT22;5678;52.370;9.006;2023-02-01T14:56:08;1.50;99.90
11242;DHT22;5678;52.370;9.006;2023-02-01T14:58:42;1.70;99.90
11242;DHT22;5678;52.370;9.006;2023-02-01T15:01:17;1.50;99.90
11242;DHT22;5678;52.370;9.006;2023-02-01T15:03:57;1.60;99.90
11242;DHT22;5678;52.370;9.006;2023-02-01T15:06:33;1.90;99.90
11242;DHT22;5678;52.370;9.006;2023-02-01T15:09:08;2.00;99.90
11242;DHT22;5678;52.370;9.006;2023-02-01T15:11:59;1.70;99.90
11242;DHT22;5678;52.370;9.006;2023-02-01T15:14:29;2.00;99.90
11242;DHT22;5678;52.370;9.006;2023-02-01T15:16:57;1.90;99.90
11242;DHT22;5678;52.370;9.006;2023-02-01T15:19:27;1.70;99.90
11242;DHT22;5678;52.370;9.006;2023-02-01T15:21:58;1.90;99.90
11242;DHT22;5678;52.370;9.006;2023-02-01T15:24:28;3.00;99.90
11242;DHT22;5678;52.370;9.006;2023-02-01T15:27:02;4.20;99.90
11242;DHT22;5678;52.370;9.006;2023-02-01T15:29:31;1.80;99.90
11242;DHT22;5678;52.370;9.006;2023-02-01T15:32:00;2.50;99.90
11242;DHT22;5678;52.370;9.006;2023-02-01T15:34:44;3.70;99.90
11242;DHT22;5678;52.370;9.006;2023-02-01T15:37:15;2.70;99.90
11242;DHT22;5678;52.370;9.006;2023-02-01T15:40:14;2.70;99.90
11242;DHT22;5678;52.370;9.006;2023-02-01T15:42:51;3.30;99.90
11242;DHT22;5678;52.370;9.006;2023-02-01T15:45:21;2.60;99.90
11242;DHT22;5678;52.370;9.006;2023-02-01T15:47:52;2.40;99.90
11242;DHT22;5678;52.370;9.006;2023-02-01T15:50:22;2.90;99.90
11242;DHT22;5678;52.370;9.006;2023-02-01T15:52:54;2.50;99.90
11242;DHT22;5678;52.370;9.006;2023-02-01T15:55:29;2.80;99.90
11242;DHT22;5678;52.370;9.006;2023-02-01T15:57:59;2.90;99.90
11242;DHT22;5678;52.370;9.006;2023-02-01T16:00:29;2.90;99.90
11242;DHT22;5678;52.370;9.006;2023-02-01T16:03:01;2.90;99.90
11242;DHT22;5678;52.370;9.006;2023-02-01T16:05:33;3.00;99.90
11242;DHT22;5678;52.370;9.006;2023-02-01T16:08:10;2.60;99.90
11242;DHT22;5678;52.370;9.006;2023-02-01T16:10:41;4.80;99.90
11242;DHT22;5678;52.370;9.006;2023-02-01T16:13:10;2.90;99.90
11242;DHT22;5678;52.370;9.006;2023-02-01T16:15:37;3.00;99.90
11242;DHT22;5678;52.370;9.006;2023-02-01T16:18:09;2.90;99.90
11242;DHT22;5678;52.370;9.006;2023-02-01T16:20:39;4.40;99.90
11242;DHT22;5678;52.370;9.006;2023-02-01T16:23:10;3.30;99.90
11242;DHT22;5678;52.370;9.006;2023-02-01T16:25:38;3.00;99.90
11242;DHT22;5678;52.370;9.006;2023-02-01T16:28:06;3.40;99.90
11242;DHT22;5678;52.370;9.006;2023-02-01T16:30:35;5.00;99.90
11242;DHT22;5678;52.370;9.006;2023-02-01T16:33:03;3.40;99.90
11242;DHT22;5678;52.370;9.006;2023-02-01T16:35:34;3.30;99.90
11242;DHT22;5678;52.370;9.006;2023-02-01T16:38:03;5.20;99.90
11242;DHT22;5678;52.370;9.006;2023-02-01T16:40:36;3.20;99.90
11242;DHT22;5678;52.370;9.006;2023-02-01T16:43:11;3.10;99.90
11242;DHT22;5678;52.370;9.006;2023-02-01T16:45:39;3.00;99.90
11242;DHT22;5678;52.370;9.006;2023-02-01T16:48:17;3.00;99.90
11242;DHT22;5678;52.370;9.006;2023-02-01T16:50:49;2.90;99.90